TAF and METAR

METAR for Kuwait International Airport

OKBK 061300Z 13008KT CAVOK 45/04 Q0996 NOSIG
Report created 6. aug 15:00
wind 8 knots from SE (130°) Clear sky Temperature 45° with dewpoint at 4° (Humidity 8.52%) Pressure 996 hPa no significant weather change expected the next couple of hours

TAF for Kuwait International Airport

TAF OKBK 061045Z 0612/0718 35010KT 8000 NSC TEMPO 0615/0620 VRB03KT
Report created 6. aug 12:45

between 6. aug 14:00 - 7. aug 20:00

wind 10 knots from N (350°) visibility 8000 meters No significant clouds.

temporarily between 6. aug 17:00 - 6. aug 22:00

wind 3 knots from various directions